sensor_id;sensor_type;location;lat;lon;timestamp;P1;durP1;ratioP1;P2;durP2;ratioP2
61840;SDS011;47773;53.174;6.614;2022-07-01T00:00:58;5.28;;;0.90;;
61840;SDS011;47773;53.174;6.614;2022-07-01T00:03:24;2.15;;;0.70;;
61840;SDS011;47773;53.174;6.614;2022-07-01T00:05:50;4.03;;;0.90;;
61840;SDS011;47773;53.174;6.614;2022-07-01T00:08:15;6.07;;;1.10;;
61840;SDS011;47773;53.174;6.614;2022-07-01T00:10:41;6.22;;;1.30;;
61840;SDS011;47773;53.174;6.614;2022-07-01T00:13:07;5.75;;;1.20;;
61840;SDS011;47773;53.174;6.614;2022-07-01T00:15:33;2.83;;;0.80;;
61840;SDS011;47773;53.174;6.614;2022-07-01T00:17:58;7.65;;;0.90;;
61840;SDS011;47773;53.174;6.614;2022-07-01T00:20:24;3.60;;;1.02;;
61840;SDS011;47773;53.174;6.614;2022-07-01T00:22:50;4.68;;;1.08;;
61840;SDS011;47773;53.174;6.614;2022-07-01T00:25:15;7.57;;;0.80;;
61840;SDS011;47773;53.174;6.614;2022-07-01T00:27:41;3.83;;;0.70;;
61840;SDS011;47773;53.174;6.614;2022-07-01T00:30:08;2.38;;;0.70;;
61840;SDS011;47773;53.174;6.614;2022-07-01T00:32:35;3.20;;;0.70;;
61840;SDS011;47773;53.174;6.614;2022-07-01T00:35:01;7.10;;;1.10;;
61840;SDS011;47773;53.174;6.614;2022-07-01T00:37:28;5.47;;;0.90;;
61840;SDS011;47773;53.174;6.614;2022-07-01T00:39:54;2.67;;;0.85;;
61840;SDS011;47773;53.174;6.614;2022-07-01T00:42:19;2.30;;;0.70;;
61840;SDS011;47773;53.174;6.614;2022-07-01T00:44:45;2.95;;;0.80;;
61840;SDS011;47773;53.174;6.614;2022-07-01T00:47:11;3.85;;;1.20;;
61840;SDS011;47773;53.174;6.614;2022-07-01T00:49:38;2.70;;;0.80;;
61840;SDS011;47773;53.174;6.614;2022-07-01T00:52:08;4.55;;;1.30;;
61840;SDS011;47773;53.174;6.614;2022-07-01T00:54:35;5.13;;;1.02;;
61840;SDS011;47773;53.174;6.614;2022-07-01T00:57:08;2.67;;;0.93;;
61840;SDS011;47773;53.174;6.614;2022-07-01T00:59:39;4.60;;;1.27;;
61840;SDS011;47773;53.174;6.614;2022-07-01T01:02:06;3.40;;;1.10;;
61840;SDS011;47773;53.174;6.614;2022-07-01T01:04:32;2.70;;;0.90;;
61840;SDS011;47773;53.174;6.614;2022-07-01T01:07:00;2.55;;;1.00;;
61840;SDS011;47773;53.174;6.614;2022-07-01T01:09:26;3.55;;;0.90;;
61840;SDS011;47773;53.174;6.614;2022-07-01T01:11:52;3.17;;;0.90;;
61840;SDS011;47773;53.174;6.614;2022-07-01T01:14:18;2.42;;;0.82;;
61840;SDS011;47773;53.174;6.614;2022-07-01T01:16:44;2.58;;;1.02;;
61840;SDS011;47773;53.174;6.614;2022-07-01T01:19:09;3.95;;;0.98;;
61840;SDS011;47773;53.174;6.614;2022-07-01T01:21:35;3.85;;;0.95;;
61840;SDS011;47773;53.174;6.614;2022-07-01T01:24:01;2.60;;;1.10;;
61840;SDS011;47773;53.174;6.614;2022-07-01T01:26:27;2.20;;;0.82;;
61840;SDS011;47773;53.174;6.614;2022-07-01T01:28:53;3.42;;;0.90;;
61840;SDS011;47773;53.174;6.614;2022-07-01T01:31:26;1.50;;;0.63;;
61840;SDS011;47773;53.174;6.614;2022-07-01T01:33:57;3.03;;;0.63;;
61840;SDS011;47773;53.174;6.614;2022-07-01T01:36:23;6.65;;;0.70;;
61840;SDS011;47773;53.174;6.614;2022-07-01T01:38:49;2.25;;;0.73;;
61840;SDS011;47773;53.174;6.614;2022-07-01T01:41:14;5.93;;;0.80;;
61840;SDS011;47773;53.174;6.614;2022-07-01T01:43:40;1.95;;;0.60;;
61840;SDS011;47773;53.174;6.614;2022-07-01T01:46:06;2.13;;;0.70;;
61840;SDS011;47773;53.174;6.614;2022-07-01T01:48:31;2.13;;;0.88;;
61840;SDS011;47773;53.174;6.614;2022-07-01T01:50:57;4.63;;;0.70;;
61840;SDS011;47773;53.174;6.614;2022-07-01T01:53:23;2.47;;;0.77;;
61840;SDS011;47773;53.174;6.614;2022-07-01T01:55:49;5.15;;;0.70;;
61840;SDS011;47773;53.174;6.614;2022-07-01T01:58:15;4.35;;;1.10;;
61840;SDS011;47773;53.174;6.614;2022-07-01T02:00:41;1.52;;;0.68;;
61840;SDS011;47773;53.174;6.614;2022-07-01T02:03:07;1.95;;;0.80;;
61840;SDS011;47773;53.174;6.614;2022-07-01T02:05:33;4.22;;;0.80;;
61840;SDS011;47773;53.174;6.614;2022-07-01T02:08:01;1.88;;;1.10;;
61840;SDS011;47773;53.174;6.614;2022-07-01T02:10:27;2.70;;;0.90;;
61840;SDS011;47773;53.174;6.614;2022-07-01T02:12:52;1.98;;;0.80;;
61840;SDS011;47773;53.174;6.614;2022-07-01T02:15:18;4.40;;;0.95;;
61840;SDS011;47773;53.174;6.614;2022-07-01T02:17:44;2.15;;;0.98;;
61840;SDS011;47773;53.174;6.614;2022-07-01T02:20:10;1.40;;;0.70;;
61840;SDS011;47773;53.174;6.614;2022-07-01T02:22:39;6.18;;;1.00;;
61840;SDS011;47773;53.174;6.614;2022-07-01T02:25:05;2.95;;;0.98;;
61840;SDS011;47773;53.174;6.614;2022-07-01T02:27:31;2.15;;;1.05;;
61840;SDS011;47773;53.174;6.614;2022-07-01T02:29:57;3.53;;;1.10;;
61840;SDS011;47773;53.174;6.614;2022-07-01T02:32:23;2.85;;;1.00;;
61840;SDS011;47773;53.174;6.614;2022-07-01T02:34:55;2.65;;;0.90;;
61840;SDS011;47773;53.174;6.614;2022-07-01T02:39:46;1.63;;;1.00;;
61840;SDS011;47773;53.174;6.614;2022-07-01T02:42:12;4.75;;;1.10;;
61840;SDS011;47773;53.174;6.614;2022-07-01T02:44:56;3.13;;;1.02;;
61840;SDS011;47773;53.174;6.614;2022-07-01T02:47:22;2.88;;;1.00;;
61840;SDS011;47773;53.174;6.614;2022-07-01T02:49:48;3.97;;;1.20;;
61840;SDS011;47773;53.174;6.614;2022-07-01T02:52:16;3.67;;;1.33;;
61840;SDS011;47773;53.174;6.614;2022-07-01T02:54:42;6.10;;;1.38;;
61840;SDS011;47773;53.174;6.614;2022-07-01T02:57:08;4.28;;;1.33;;
61840;SDS011;47773;53.174;6.614;2022-07-01T02:59:34;3.45;;;1.48;;
61840;SDS011;47773;53.174;6.614;2022-07-01T03:01:59;2.70;;;1.48;;
61840;SDS011;47773;53.174;6.614;2022-07-01T03:04:25;3.45;;;1.40;;
61840;SDS011;47773;53.174;6.614;2022-07-01T03:06:51;3.08;;;1.50;;
61840;SDS011;47773;53.174;6.614;2022-07-01T03:09:17;3.42;;;1.70;;
61840;SDS011;47773;53.174;6.614;2022-07-01T03:11:42;4.45;;;1.92;;
61840;SDS011;47773;53.174;6.614;2022-07-01T03:14:08;3.58;;;1.70;;
61840;SDS011;47773;53.174;6.614;2022-07-01T03:16:33;5.95;;;1.95;;
61840;SDS011;47773;53.174;6.614;2022-07-01T03:18:59;5.05;;;1.95;;
61840;SDS011;47773;53.174;6.614;2022-07-01T03:21:26;2.97;;;1.80;;
61840;SDS011;47773;53.174;6.614;2022-07-01T03:23:52;3.90;;;1.98;;
61840;SDS011;47773;53.174;6.614;2022-07-01T03:26:18;5.55;;;1.90;;
61840;SDS011;47773;53.174;6.614;2022-07-01T03:28:43;3.97;;;1.92;;
61840;SDS011;47773;53.174;6.614;2022-07-01T03:31:09;3.47;;;2.20;;
61840;SDS011;47773;53.174;6.614;2022-07-01T03:33:35;7.38;;;2.20;;
61840;SDS011;47773;53.174;6.614;2022-07-01T03:36:01;3.78;;;1.70;;
61840;SDS011;47773;53.174;6.614;2022-07-01T03:38:27;4.88;;;1.88;;
61840;SDS011;47773;53.174;6.614;2022-07-01T03:40:53;5.38;;;1.70;;
61840;SDS011;47773;53.174;6.614;2022-07-01T03:43:18;4.97;;;2.10;;
61840;SDS011;47773;53.174;6.614;2022-07-01T03:45:44;5.28;;;1.70;;
61840;SDS011;47773;53.174;6.614;2022-07-01T03:48:09;6.68;;;1.88;;
61840;SDS011;47773;53.174;6.614;2022-07-01T03:50:35;8.35;;;2.30;;
61840;SDS011;47773;53.174;6.614;2022-07-01T03:53:01;5.25;;;2.03;;
61840;SDS011;47773;53.174;6.614;2022-07-01T03:55:45;6.95;;;2.10;;
61840;SDS011;47773;53.174;6.614;2022-07-01T03:58:11;3.20;;;2.10;;
61840;SDS011;47773;53.174;6.614;2022-07-01T04:00:37;3.92;;;2.30;;
61840;SDS011;47773;53.174;6.614;2022-07-01T04:03:04;3.47;;;2.33;;
61840;SDS011;47773;53.174;6.614;2022-07-01T04:05:33;5.45;;;2.45;;
61840;SDS011;47773;53.174;6.614;2022-07-01T04:08:01;4.75;;;2.60;;
61840;SDS011;47773;53.174;6.614;2022-07-01T04:10:32;7.15;;;2.50;;
61840;SDS011;47773;53.174;6.614;2022-07-01T04:13:00;7.47;;;2.15;;
61840;SDS011;47773;53.174;6.614;2022-07-01T04:15:27;4.50;;;2.35;;
61840;SDS011;47773;53.174;6.614;2022-07-01T04:17:53;7.10;;;2.22;;
61840;SDS011;47773;53.174;6.614;2022-07-01T04:20:19;3.63;;;2.35;;
61840;SDS011;47773;53.174;6.614;2022-07-01T04:22:44;6.57;;;2.30;;
61840;SDS011;47773;53.174;6.614;2022-07-01T04:25:10;8.70;;;2.80;;
61840;SDS011;47773;53.174;6.614;2022-07-01T04:27:36;13.30;;;2.80;;
61840;SDS011;47773;53.174;6.614;2022-07-01T04:30:01;4.50;;;2.30;;
61840;SDS011;47773;53.174;6.614;2022-07-01T04:32:28;6.95;;;2.70;;
61840;SDS011;47773;53.174;6.614;2022-07-01T04:34:55;5.28;;;2.63;;
61840;SDS011;47773;53.174;6.614;2022-07-01T04:37:20;6.35;;;2.63;;
61840;SDS011;47773;53.174;6.614;2022-07-01T04:39:46;5.45;;;2.63;;
61840;SDS011;47773;53.174;6.614;2022-07-01T04:42:12;8.50;;;2.95;;
61840;SDS011;47773;53.174;6.614;2022-07-01T04:44:39;6.47;;;2.85;;
61840;SDS011;47773;53.174;6.614;2022-07-01T04:47:04;4.20;;;3.05;;
61840;SDS011;47773;53.174;6.614;2022-07-01T04:49:30;5.22;;;3.50;;
61840;SDS011;47773;53.174;6.614;2022-07-01T04:51:56;6.22;;;3.75;;
61840;SDS011;47773;53.174;6.614;2022-07-01T04:54:23;9.73;;;3.67;;
61840;SDS011;47773;53.174;6.614;2022-07-01T04:56:50;9.95;;;4.32;;
61840;SDS011;47773;53.174;6.614;2022-07-01T04:59:17;8.38;;;4.63;;
61840;SDS011;47773;53.174;6.614;2022-07-01T05:01:44;8.70;;;4.45;;
61840;SDS011;47773;53.174;6.614;2022-07-01T05:04:13;9.48;;;4.97;;
61840;SDS011;47773;53.174;6.614;2022-07-01T05:06:40;9.98;;;5.65;;
61840;SDS011;47773;53.174;6.614;2022-07-01T05:09:06;13.05;;;5.90;;
61840;SDS011;47773;53.174;6.614;2022-07-01T05:11:32;15.98;;;6.97;;
61840;SDS011;47773;53.174;6.614;2022-07-01T05:13:58;17.15;;;7.13;;
61840;SDS011;47773;53.174;6.614;2022-07-01T05:16:24;13.82;;;7.75;;
61840;SDS011;47773;53.174;6.614;2022-07-01T05:18:49;14.98;;;7.55;;
61840;SDS011;47773;53.174;6.614;2022-07-01T05:21:33;16.35;;;9.10;;
61840;SDS011;47773;53.174;6.614;2022-07-01T05:24:18;17.00;;;9.38;;
61840;SDS011;47773;53.174;6.614;2022-07-01T05:26:43;21.30;;;10.15;;
61840;SDS011;47773;53.174;6.614;2022-07-01T05:29:09;19.42;;;11.32;;
61840;SDS011;47773;53.174;6.614;2022-07-01T05:31:35;17.58;;;10.90;;
61840;SDS011;47773;53.174;6.614;2022-07-01T05:34:00;21.95;;;11.38;;
61840;SDS011;47773;53.174;6.614;2022-07-01T05:36:26;23.08;;;12.52;;
61840;SDS011;47773;53.174;6.614;2022-07-01T05:38:52;20.42;;;12.48;;
61840;SDS011;47773;53.174;6.614;2022-07-01T05:41:17;23.50;;;11.73;;
61840;SDS011;47773;53.174;6.614;2022-07-01T05:43:44;23.38;;;13.07;;
61840;SDS011;47773;53.174;6.614;2022-07-01T05:46:09;20.15;;;12.43;;
61840;SDS011;47773;53.174;6.614;2022-07-01T05:48:36;22.60;;;13.80;;
61840;SDS011;47773;53.174;6.614;2022-07-01T05:51:02;21.52;;;12.98;;
61840;SDS011;47773;53.174;6.614;2022-07-01T05:53:27;22.67;;;14.00;;
61840;SDS011;47773;53.174;6.614;2022-07-01T05:55:53;20.55;;;13.05;;
61840;SDS011;47773;53.174;6.614;2022-07-01T05:58:19;27.20;;;15.20;;
61840;SDS011;47773;53.174;6.614;2022-07-01T06:00:44;24.05;;;13.30;;
61840;SDS011;47773;53.174;6.614;2022-07-01T06:03:10;25.10;;;14.70;;
61840;SDS011;47773;53.174;6.614;2022-07-01T06:05:37;26.52;;;14.63;;
61840;SDS011;47773;53.174;6.614;2022-07-01T06:08:03;29.10;;;16.02;;
61840;SDS011;47773;53.174;6.614;2022-07-01T06:10:29;27.05;;;14.93;;
61840;SDS011;47773;53.174;6.614;2022-07-01T06:12:55;34.38;;;17.45;;
61840;SDS011;47773;53.174;6.614;2022-07-01T06:15:26;31.23;;;17.48;;
61840;SDS011;47773;53.174;6.614;2022-07-01T06:17:52;29.73;;;16.67;;
61840;SDS011;47773;53.174;6.614;2022-07-01T06:20:19;29.27;;;17.77;;
61840;SDS011;47773;53.174;6.614;2022-07-01T06:22:45;29.85;;;17.38;;
61840;SDS011;47773;53.174;6.614;2022-07-01T06:25:11;33.08;;;18.67;;
61840;SDS011;47773;53.174;6.614;2022-07-01T06:27:40;29.50;;;18.17;;
61840;SDS011;47773;53.174;6.614;2022-07-01T06:30:07;29.67;;;17.42;;
61840;SDS011;47773;53.174;6.614;2022-07-01T06:32:34;32.05;;;18.52;;
61840;SDS011;47773;53.174;6.614;2022-07-01T06:34:59;31.45;;;18.40;;
61840;SDS011;47773;53.174;6.614;2022-07-01T06:37:25;30.55;;;17.95;;
61840;SDS011;47773;53.174;6.614;2022-07-01T06:39:50;29.77;;;16.95;;
61840;SDS011;47773;53.174;6.614;2022-07-01T06:42:16;25.90;;;17.33;;
61840;SDS011;47773;53.174;6.614;2022-07-01T06:44:42;28.05;;;16.80;;
61840;SDS011;47773;53.174;6.614;2022-07-01T06:47:07;27.20;;;16.55;;
61840;SDS011;47773;53.174;6.614;2022-07-01T06:49:33;30.15;;;19.52;;
61840;SDS011;47773;53.174;6.614;2022-07-01T06:51:59;27.40;;;17.50;;
61840;SDS011;47773;53.174;6.614;2022-07-01T06:54:24;27.33;;;16.60;;
61840;SDS011;47773;53.174;6.614;2022-07-01T06:56:50;29.48;;;17.50;;
61840;SDS011;47773;53.174;6.614;2022-07-01T06:59:16;28.98;;;15.65;;
61840;SDS011;47773;53.174;6.614;2022-07-01T07:01:42;24.95;;;15.35;;
61840;SDS011;47773;53.174;6.614;2022-07-01T07:04:08;25.40;;;15.85;;
61840;SDS011;47773;53.174;6.614;2022-07-01T07:06:33;30.75;;;16.95;;
61840;SDS011;47773;53.174;6.614;2022-07-01T07:08:59;25.77;;;16.10;;
61840;SDS011;47773;53.174;6.614;2022-07-01T07:11:24;31.77;;;17.55;;
61840;SDS011;47773;53.174;6.614;2022-07-01T07:13:52;25.38;;;16.17;;
61840;SDS011;47773;53.174;6.614;2022-07-01T07:16:17;35.00;;;18.33;;
61840;SDS011;47773;53.174;6.614;2022-07-01T07:18:49;26.27;;;17.15;;
61840;SDS011;47773;53.174;6.614;2022-07-01T07:21:16;27.42;;;19.08;;
61840;SDS011;47773;53.174;6.614;2022-07-01T07:23:41;26.90;;;18.02;;
61840;SDS011;47773;53.174;6.614;2022-07-01T07:26:08;26.35;;;16.77;;
61840;SDS011;47773;53.174;6.614;2022-07-01T07:28:34;28.48;;;17.70;;
61840;SDS011;47773;53.174;6.614;2022-07-01T07:31:00;26.45;;;17.88;;
61840;SDS011;47773;53.174;6.614;2022-07-01T07:33:26;30.95;;;18.85;;
61840;SDS011;47773;53.174;6.614;2022-07-01T07:35:57;30.27;;;19.58;;
61840;SDS011;47773;53.174;6.614;2022-07-01T07:38:23;24.40;;;18.40;;
61840;SDS011;47773;53.174;6.614;2022-07-01T07:40:49;30.80;;;19.33;;
61840;SDS011;47773;53.174;6.614;2022-07-01T07:43:14;30.80;;;16.77;;
61840;SDS011;47773;53.174;6.614;2022-07-01T07:45:40;31.52;;;18.98;;
61840;SDS011;47773;53.174;6.614;2022-07-01T07:48:06;26.48;;;16.98;;
61840;SDS011;47773;53.174;6.614;2022-07-01T07:50:33;26.60;;;17.35;;
61840;SDS011;47773;53.174;6.614;2022-07-01T07:52:59;28.98;;;17.65;;
61840;SDS011;47773;53.174;6.614;2022-07-01T07:55:25;24.55;;;17.42;;
61840;SDS011;47773;53.174;6.614;2022-07-01T07:57:52;26.05;;;18.65;;
61840;SDS011;47773;53.174;6.614;2022-07-01T08:00:17;28.00;;;18.88;;
61840;SDS011;47773;53.174;6.614;2022-07-01T08:02:43;29.23;;;17.88;;
61840;SDS011;47773;53.174;6.614;2022-07-01T08:05:09;25.75;;;16.02;;
61840;SDS011;47773;53.174;6.614;2022-07-01T08:07:39;23.60;;;16.65;;
61840;SDS011;47773;53.174;6.614;2022-07-01T08:10:08;30.93;;;16.70;;
61840;SDS011;47773;53.174;6.614;2022-07-01T08:12:36;24.38;;;15.52;;
61840;SDS011;47773;53.174;6.614;2022-07-01T08:15:02;23.85;;;16.25;;
61840;SDS011;47773;53.174;6.614;2022-07-01T08:17:28;20.35;;;12.70;;
61840;SDS011;47773;53.174;6.614;2022-07-01T08:19:53;23.95;;;15.88;;
61840;SDS011;47773;53.174;6.614;2022-07-01T08:22:19;24.08;;;15.60;;
61840;SDS011;47773;53.174;6.614;2022-07-01T08:24:45;27.25;;;15.88;;
61840;SDS011;47773;53.174;6.614;2022-07-01T08:27:10;24.20;;;15.13;;
61840;SDS011;47773;53.174;6.614;2022-07-01T08:29:37;18.90;;;13.82;;
61840;SDS011;47773;53.174;6.614;2022-07-01T08:32:04;18.92;;;14.05;;
61840;SDS011;47773;53.174;6.614;2022-07-01T08:34:30;20.90;;;13.95;;
61840;SDS011;47773;53.174;6.614;2022-07-01T08:36:55;21.80;;;13.48;;
61840;SDS011;47773;53.174;6.614;2022-07-01T08:39:21;23.77;;;13.63;;
61840;SDS011;47773;53.174;6.614;2022-07-01T08:41:47;15.82;;;10.65;;
61840;SDS011;47773;53.174;6.614;2022-07-01T08:44:13;16.08;;;10.32;;
61840;SDS011;47773;53.174;6.614;2022-07-01T08:46:39;19.08;;;10.57;;
61840;SDS011;47773;53.174;6.614;2022-07-01T08:49:05;19.73;;;10.05;;
61840;SDS011;47773;53.174;6.614;2022-07-01T08:51:31;20.70;;;11.02;;
61840;SDS011;47773;53.174;6.614;2022-07-01T08:53:56;15.15;;;10.70;;
61840;SDS011;47773;53.174;6.614;2022-07-01T08:56:22;17.90;;;10.38;;
61840;SDS011;47773;53.174;6.614;2022-07-01T08:59:06;17.10;;;9.73;;
61840;SDS011;47773;53.174;6.614;2022-07-01T09:01:36;16.20;;;9.68;;
61840;SDS011;47773;53.174;6.614;2022-07-01T09:04:15;21.52;;;9.40;;
61840;SDS011;47773;53.174;6.614;2022-07-01T09:06:43;15.77;;;8.15;;
61840;SDS011;47773;53.174;6.614;2022-07-01T09:09:13;14.80;;;7.95;;
61840;SDS011;47773;53.174;6.614;2022-07-01T09:11:46;11.18;;;6.43;;
61840;SDS011;47773;53.174;6.614;2022-07-01T09:14:18;13.88;;;7.55;;
61840;SDS011;47773;53.174;6.614;2022-07-01T09:16:52;10.65;;;6.07;;
61840;SDS011;47773;53.174;6.614;2022-07-01T09:19:20;17.33;;;6.32;;
61840;SDS011;47773;53.174;6.614;2022-07-01T09:21:57;14.02;;;5.65;;
61840;SDS011;47773;53.174;6.614;2022-07-01T09:27:09;11.48;;;6.35;;
61840;SDS011;47773;53.174;6.614;2022-07-01T09:29:42;12.77;;;6.07;;
61840;SDS011;47773;53.174;6.614;2022-07-01T09:32:11;11.95;;;5.50;;
61840;SDS011;47773;53.174;6.614;2022-07-01T09:34:44;15.18;;;5.97;;
61840;SDS011;47773;53.174;6.614;2022-07-01T09:37:18;8.55;;;6.00;;
61840;SDS011;47773;53.174;6.614;2022-07-01T09:39:53;10.18;;;5.22;;
61840;SDS011;47773;53.174;6.614;2022-07-01T09:42:20;13.10;;;5.53;;
61840;SDS011;47773;53.174;6.614;2022-07-01T09:47:47;10.32;;;4.25;;
61840;SDS011;47773;53.174;6.614;2022-07-01T09:50:13;8.48;;;3.80;;
61840;SDS011;47773;53.174;6.614;2022-07-01T09:52:39;8.57;;;4.10;;
61840;SDS011;47773;53.174;6.614;2022-07-01T09:55:05;6.72;;;3.03;;
61840;SDS011;47773;53.174;6.614;2022-07-01T09:57:32;7.95;;;3.22;;
61840;SDS011;47773;53.174;6.614;2022-07-01T09:59:58;11.18;;;3.85;;
61840;SDS011;47773;53.174;6.614;2022-07-01T10:02:24;11.82;;;3.80;;
61840;SDS011;47773;53.174;6.614;2022-07-01T10:07:42;10.13;;;3.78;;
61840;SDS011;47773;53.174;6.614;2022-07-01T10:13:02;9.27;;;4.10;;
61840;SDS011;47773;53.174;6.614;2022-07-01T10:15:29;10.32;;;4.78;;
61840;SDS011;47773;53.174;6.614;2022-07-01T10:17:56;11.77;;;4.18;;
61840;SDS011;47773;53.174;6.614;2022-07-01T10:20:28;9.15;;;4.40;;
61840;SDS011;47773;53.174;6.614;2022-07-01T10:23:02;8.85;;;4.45;;
61840;SDS011;47773;53.174;6.614;2022-07-01T10:25:40;6.88;;;3.88;;
61840;SDS011;47773;53.174;6.614;2022-07-01T10:33:26;9.00;;;3.50;;
61840;SDS011;47773;53.174;6.614;2022-07-01T10:35:52;4.38;;;2.70;;
61840;SDS011;47773;53.174;6.614;2022-07-01T10:38:17;11.30;;;3.40;;
61840;SDS011;47773;53.174;6.614;2022-07-01T10:40:45;12.15;;;3.72;;
61840;SDS011;47773;53.174;6.614;2022-07-01T10:43:17;6.32;;;3.30;;
61840;SDS011;47773;53.174;6.614;2022-07-01T10:45:56;11.68;;;3.83;;
61840;SDS011;47773;53.174;6.614;2022-07-01T10:48:23;9.73;;;4.13;;
61840;SDS011;47773;53.174;6.614;2022-07-01T10:50:49;8.23;;;4.03;;
61840;SDS011;47773;53.174;6.614;2022-07-01T10:53:16;9.25;;;4.10;;
61840;SDS011;47773;53.174;6.614;2022-07-01T10:55:46;9.57;;;3.58;;
61840;SDS011;47773;53.174;6.614;2022-07-01T10:58:13;11.32;;;4.63;;
61840;SDS011;47773;53.174;6.614;2022-07-01T11:00:44;11.48;;;3.90;;
61840;SDS011;47773;53.174;6.614;2022-07-01T11:03:12;9.00;;;4.30;;
61840;SDS011;47773;53.174;6.614;2022-07-01T11:05:43;9.35;;;4.43;;
61840;SDS011;47773;53.174;6.614;2022-07-01T11:08:11;13.13;;;4.35;;
61840;SDS011;47773;53.174;6.614;2022-07-01T11:10:41;11.98;;;3.83;;
61840;SDS011;47773;53.174;6.614;2022-07-01T11:13:07;9.65;;;4.18;;
61840;SDS011;47773;53.174;6.614;2022-07-01T11:15:37;5.60;;;2.20;;
61840;SDS011;47773;53.174;6.614;2022-07-01T11:18:03;5.30;;;1.30;;
61840;SDS011;47773;53.174;6.614;2022-07-01T11:20:30;3.17;;;0.90;;
61840;SDS011;47773;53.174;6.614;2022-07-01T11:22:57;5.75;;;0.90;;
61840;SDS011;47773;53.174;6.614;2022-07-01T11:25:24;2.33;;;0.80;;
61840;SDS011;47773;53.174;6.614;2022-07-01T11:27:50;3.83;;;0.90;;
61840;SDS011;47773;53.174;6.614;2022-07-01T11:30:17;4.32;;;0.85;;
61840;SDS011;47773;53.174;6.614;2022-07-01T11:32:49;3.25;;;0.77;;
61840;SDS011;47773;53.174;6.614;2022-07-01T11:35:19;6.25;;;0.85;;
61840;SDS011;47773;53.174;6.614;2022-07-01T11:38:09;5.10;;;0.90;;
61840;SDS011;47773;53.174;6.614;2022-07-01T11:40:53;3.40;;;0.90;;
61840;SDS011;47773;53.174;6.614;2022-07-01T11:43:27;2.25;;;0.60;;
61840;SDS011;47773;53.174;6.614;2022-07-01T11:45:54;4.88;;;0.90;;
61840;SDS011;47773;53.174;6.614;2022-07-01T11:51:20;5.82;;;0.80;;
61840;SDS011;47773;53.174;6.614;2022-07-01T11:53:49;4.25;;;0.70;;
61840;SDS011;47773;53.174;6.614;2022-07-01T11:56:17;4.05;;;1.00;;
61840;SDS011;47773;53.174;6.614;2022-07-01T11:59:03;5.40;;;0.90;;
61840;SDS011;47773;53.174;6.614;2022-07-01T12:01:36;5.93;;;1.00;;
61840;SDS011;47773;53.174;6.614;2022-07-01T12:04:08;12.27;;;1.30;;
61840;SDS011;47773;53.174;6.614;2022-07-01T12:06:39;4.82;;;1.00;;
61840;SDS011;47773;53.174;6.614;2022-07-01T12:09:11;5.40;;;1.02;;
61840;SDS011;47773;53.174;6.614;2022-07-01T12:11:43;4.95;;;0.95;;
61840;SDS011;47773;53.174;6.614;2022-07-01T12:14:10;7.60;;;1.00;;
61840;SDS011;47773;53.174;6.614;2022-07-01T12:16:39;2.58;;;0.95;;
61840;SDS011;47773;53.174;6.614;2022-07-01T12:19:06;8.10;;;1.20;;
61840;SDS011;47773;53.174;6.614;2022-07-01T12:21:46;7.10;;;1.70;;
61840;SDS011;47773;53.174;6.614;2022-07-01T12:24:17;5.95;;;1.38;;
61840;SDS011;47773;53.174;6.614;2022-07-01T12:26:46;8.55;;;1.55;;
61840;SDS011;47773;53.174;6.614;2022-07-01T12:29:14;5.22;;;1.38;;
61840;SDS011;47773;53.174;6.614;2022-07-01T12:31:54;6.82;;;1.30;;
61840;SDS011;47773;53.174;6.614;2022-07-01T12:37:11;5.63;;;0.82;;
61840;SDS011;47773;53.174;6.614;2022-07-01T12:39:44;2.95;;;0.70;;
61840;SDS011;47773;53.174;6.614;2022-07-01T12:42:21;11.63;;;1.20;;
61840;SDS011;47773;53.174;6.614;2022-07-01T12:45:05;3.15;;;0.70;;
61840;SDS011;47773;53.174;6.614;2022-07-01T12:47:38;5.70;;;0.82;;
61840;SDS011;47773;53.174;6.614;2022-07-01T12:52:43;4.22;;;0.65;;
61840;SDS011;47773;53.174;6.614;2022-07-01T12:55:22;3.28;;;0.65;;
61840;SDS011;47773;53.174;6.614;2022-07-01T12:57:51;2.35;;;0.40;;
61840;SDS011;47773;53.174;6.614;2022-07-01T13:00:19;6.22;;;0.77;;
61840;SDS011;47773;53.174;6.614;2022-07-01T13:02:49;4.30;;;0.52;;
61840;SDS011;47773;53.174;6.614;2022-07-01T13:05:16;7.68;;;0.50;;
61840;SDS011;47773;53.174;6.614;2022-07-01T13:07:42;7.55;;;0.93;;
61840;SDS011;47773;53.174;6.614;2022-07-01T13:10:08;6.90;;;0.85;;
61840;SDS011;47773;53.174;6.614;2022-07-01T13:12:33;4.90;;;0.55;;
61840;SDS011;47773;53.174;6.614;2022-07-01T13:14:59;9.88;;;0.70;;
61840;SDS011;47773;53.174;6.614;2022-07-01T13:17:25;5.85;;;0.90;;
61840;SDS011;47773;53.174;6.614;2022-07-01T13:19:52;6.43;;;0.65;;
61840;SDS011;47773;53.174;6.614;2022-07-01T13:22:18;6.47;;;0.70;;
61840;SDS011;47773;53.174;6.614;2022-07-01T13:24:44;3.97;;;0.88;;
61840;SDS011;47773;53.174;6.614;2022-07-01T13:27:10;6.25;;;0.77;;
61840;SDS011;47773;53.174;6.614;2022-07-01T13:29:36;5.25;;;0.95;;
61840;SDS011;47773;53.174;6.614;2022-07-01T13:32:02;2.55;;;0.60;;
61840;SDS011;47773;53.174;6.614;2022-07-01T13:34:28;7.45;;;0.65;;
61840;SDS011;47773;53.174;6.614;2022-07-01T13:36:54;5.50;;;0.90;;
61840;SDS011;47773;53.174;6.614;2022-07-01T13:39:21;5.43;;;0.95;;
61840;SDS011;47773;53.174;6.614;2022-07-01T13:41:47;4.72;;;0.75;;
61840;SDS011;47773;53.174;6.614;2022-07-01T13:44:13;3.22;;;0.50;;
61840;SDS011;47773;53.174;6.614;2022-07-01T13:46:39;6.95;;;0.90;;
61840;SDS011;47773;53.174;6.614;2022-07-01T13:49:05;2.50;;;0.55;;
61840;SDS011;47773;53.174;6.614;2022-07-01T13:51:32;5.22;;;1.10;;
61840;SDS011;47773;53.174;6.614;2022-07-01T13:53:58;4.70;;;0.80;;
61840;SDS011;47773;53.174;6.614;2022-07-01T13:56:25;4.78;;;0.90;;
61840;SDS011;47773;53.174;6.614;2022-07-01T13:58:51;5.47;;;1.00;;
61840;SDS011;47773;53.174;6.614;2022-07-01T14:01:18;6.43;;;0.80;;
61840;SDS011;47773;53.174;6.614;2022-07-01T14:03:45;8.35;;;0.90;;
61840;SDS011;47773;53.174;6.614;2022-07-01T14:06:11;20.75;;;1.20;;
61840;SDS011;47773;53.174;6.614;2022-07-01T14:08:37;5.75;;;0.90;;
61840;SDS011;47773;53.174;6.614;2022-07-01T14:11:03;8.95;;;0.75;;
61840;SDS011;47773;53.174;6.614;2022-07-01T14:13:29;3.30;;;0.80;;
61840;SDS011;47773;53.174;6.614;2022-07-01T14:15:54;4.18;;;0.73;;
61840;SDS011;47773;53.174;6.614;2022-07-01T14:18:20;3.15;;;0.90;;
61840;SDS011;47773;53.174;6.614;2022-07-01T14:20:46;4.72;;;0.60;;
61840;SDS011;47773;53.174;6.614;2022-07-01T14:23:11;5.30;;;0.70;;
61840;SDS011;47773;53.174;6.614;2022-07-01T14:25:38;4.50;;;0.90;;
61840;SDS011;47773;53.174;6.614;2022-07-01T14:28:05;4.80;;;0.88;;
61840;SDS011;47773;53.174;6.614;2022-07-01T14:30:32;2.83;;;1.00;;
61840;SDS011;47773;53.174;6.614;2022-07-01T14:32:58;4.63;;;0.95;;
61840;SDS011;47773;53.174;6.614;2022-07-01T14:35:26;5.13;;;0.95;;
61840;SDS011;47773;53.174;6.614;2022-07-01T14:37:53;3.90;;;0.75;;
61840;SDS011;47773;53.174;6.614;2022-07-01T14:40:19;3.22;;;0.73;;
61840;SDS011;47773;53.174;6.614;2022-07-01T14:45:15;4.63;;;0.95;;
61840;SDS011;47773;53.174;6.614;2022-07-01T14:47:41;4.55;;;0.80;;
61840;SDS011;47773;53.174;6.614;2022-07-01T14:50:08;9.52;;;1.00;;
61840;SDS011;47773;53.174;6.614;2022-07-01T14:52:34;5.95;;;1.08;;
61840;SDS011;47773;53.174;6.614;2022-07-01T14:55:00;6.63;;;1.10;;
61840;SDS011;47773;53.174;6.614;2022-07-01T14:57:26;4.53;;;1.20;;
61840;SDS011;47773;53.174;6.614;2022-07-01T14:59:52;8.52;;;1.20;;
61840;SDS011;47773;53.174;6.614;2022-07-01T15:02:18;4.40;;;1.15;;
61840;SDS011;47773;53.174;6.614;2022-07-01T15:04:44;7.85;;;1.20;;
61840;SDS011;47773;53.174;6.614;2022-07-01T15:07:11;3.83;;;1.23;;
61840;SDS011;47773;53.174;6.614;2022-07-01T15:09:37;5.68;;;1.10;;
61840;SDS011;47773;53.174;6.614;2022-07-01T15:12:03;9.77;;;1.50;;